San Gabriel, California
Current Conditions -  °F | °C
As of 7:45 PM on Thursday 27 Nov 2014 (Local Time) from KEMT Reporting Station
Clear Clear  
Wind Chill: 18°   Ceiling: Unl
Heat Index: 18°   Visibility: 10mi
Dew Point:   Wind: 0mph
Humidity: 42%   Direction: NA
Pressure: 30.03"   Gusts: NA
Location:  34.1°N, 118.1°W
Report Text: KEMT 280345Z 00000KT 10SM CLR 18/05 A3003
Loading
Personal Weather Stations






























Interactive Weather Map New forecast layout! Learn more

10-Day Weather Forecast

Advertisements
Track Severe Weather on mobile